sensor_id;sensor_type;location;lat;lon;timestamp;pressure;altitude;pressure_sealevel;temperature;humidity
49393;BME280;35268;42.642;23.308;2024-02-21T00:01:21;94539.94;;;4.57;80.08
49393;BME280;35268;42.642;23.308;2024-02-21T00:03:47;94540.22;;;4.60;79.71
49393;BME280;35268;42.642;23.308;2024-02-21T00:06:12;94544.44;;;4.61;79.55
49393;BME280;35268;42.642;23.308;2024-02-21T00:08:38;94543.13;;;4.59;79.86
49393;BME280;35268;42.642;23.308;2024-02-21T00:11:04;94533.59;;;4.58;79.54
49393;BME280;35268;42.642;23.308;2024-02-21T00:13:29;94538.88;;;4.58;79.70
49393;BME280;35268;42.642;23.308;2024-02-21T00:15:55;94535.97;;;4.54;79.55
49393;BME280;35268;42.642;23.308;2024-02-21T00:18:20;94533.34;;;4.54;79.52
49393;BME280;35268;42.642;23.308;2024-02-21T00:20:45;94536.78;;;4.55;79.92
49393;BME280;35268;42.642;23.308;2024-02-21T00:23:11;94530.41;;;4.51;79.80
49393;BME280;35268;42.642;23.308;2024-02-21T00:25:37;94532.78;;;4.47;80.01
49393;BME280;35268;42.642;23.308;2024-02-21T00:28:02;94531.44;;;4.45;79.93
49393;BME280;35268;42.642;23.308;2024-02-21T00:30:28;94526.72;;;4.47;80.10
49393;BME280;35268;42.642;23.308;2024-02-21T00:32:53;94527.00;;;4.50;80.25
49393;BME280;35268;42.642;23.308;2024-02-21T00:35:19;94521.44;;;4.52;80.39
49393;BME280;35268;42.642;23.308;2024-02-21T00:37:44;94529.34;;;4.52;80.31
49393;BME280;35268;42.642;23.308;2024-02-21T00:40:10;94523.84;;;4.58;80.11
49393;BME280;35268;42.642;23.308;2024-02-21T00:42:35;94532.84;;;4.68;79.74
49393;BME280;35268;42.642;23.308;2024-02-21T00:45:01;94526.00;;;4.67;79.49
49393;BME280;35268;42.642;23.308;2024-02-21T00:47:26;94525.19;;;4.61;79.91
49393;BME280;35268;42.642;23.308;2024-02-21T00:49:52;94524.38;;;4.60;80.17
49393;BME280;35268;42.642;23.308;2024-02-21T00:52:17;94529.63;;;4.55;80.06
49393;BME280;35268;42.642;23.308;2024-02-21T00:54:43;94518.28;;;4.55;80.05
49393;BME280;35268;42.642;23.308;2024-02-21T00:57:08;94520.16;;;4.59;80.04
49393;BME280;35268;42.642;23.308;2024-02-21T00:59:34;94513.81;;;4.66;79.98
49393;BME280;35268;42.642;23.308;2024-02-21T01:01:59;94508.31;;;4.72;79.79
49393;BME280;35268;42.642;23.308;2024-02-21T01:04:25;94510.19;;;4.77;79.60
49393;BME280;35268;42.642;23.308;2024-02-21T01:06:50;94500.16;;;4.79;79.67
49393;BME280;35268;42.642;23.308;2024-02-21T01:09:15;94499.09;;;4.85;79.45
49393;BME280;35268;42.642;23.308;2024-02-21T01:11:41;94495.94;;;4.83;79.42
49393;BME280;35268;42.642;23.308;2024-02-21T01:14:06;94494.59;;;4.75;79.76
49393;BME280;35268;42.642;23.308;2024-02-21T01:16:32;94495.66;;;4.79;79.86
49393;BME280;35268;42.642;23.308;2024-02-21T01:18:57;94498.28;;;4.79;79.51
49393;BME280;35268;42.642;23.308;2024-02-21T01:21:22;94489.84;;;4.77;79.44
49393;BME280;35268;42.642;23.308;2024-02-21T01:23:48;94481.38;;;4.75;79.88
49393;BME280;35268;42.642;23.308;2024-02-21T01:26:13;94486.13;;;4.68;79.56
49393;BME280;35268;42.642;23.308;2024-02-21T01:28:40;94480.84;;;4.68;79.82
49393;BME280;35268;42.642;23.308;2024-02-21T01:31:06;94490.59;;;4.68;79.11
49393;BME280;35268;42.642;23.308;2024-02-21T01:33:32;94488.25;;;4.66;78.93
49393;BME280;35268;42.642;23.308;2024-02-21T01:36:03;94489.28;;;4.65;78.69
49393;BME280;35268;42.642;23.308;2024-02-21T01:38:29;94487.94;;;4.57;78.68
49393;BME280;35268;42.642;23.308;2024-02-21T01:40:55;94481.03;;;4.51;78.30
49393;BME280;35268;42.642;23.308;2024-02-21T01:43:20;94474.44;;;4.49;78.74
49393;BME280;35268;42.642;23.308;2024-02-21T01:45:54;94481.56;;;4.48;78.16
49393;BME280;35268;42.642;23.308;2024-02-21T01:48:21;94478.41;;;4.46;78.07
49393;BME280;35268;42.642;23.308;2024-02-21T01:50:48;94467.56;;;4.48;77.87
49393;BME280;35268;42.642;23.308;2024-02-21T01:53:29;94479.44;;;4.40;77.84
49393;BME280;35268;42.642;23.308;2024-02-21T01:55:54;94475.72;;;4.41;78.01
49393;BME280;35268;42.642;23.308;2024-02-21T01:58:20;94467.84;;;4.46;77.54
49393;BME280;35268;42.642;23.308;2024-02-21T02:00:47;94471.53;;;4.45;77.09
49393;BME280;35268;42.642;23.308;2024-02-21T02:03:13;94473.66;;;4.48;76.87
49393;BME280;35268;42.642;23.308;2024-02-21T02:05:46;94470.44;;;4.41;76.61
49393;BME280;35268;42.642;23.308;2024-02-21T02:08:13;94474.94;;;4.46;76.76
49393;BME280;35268;42.642;23.308;2024-02-21T02:10:40;94473.91;;;4.52;76.92
49393;BME280;35268;42.642;23.308;2024-02-21T02:13:06;94473.69;;;4.58;76.25
49393;BME280;35268;42.642;23.308;2024-02-21T02:15:45;94470.22;;;4.58;76.25
49393;BME280;35268;42.642;23.308;2024-02-21T02:18:12;94460.50;;;4.58;75.99
49393;BME280;35268;42.642;23.308;2024-02-21T02:20:38;94466.03;;;4.57;76.34
49393;BME280;35268;42.642;23.308;2024-02-21T02:23:08;94465.50;;;4.60;76.62
49393;BME280;35268;42.642;23.308;2024-02-21T02:25:35;94462.31;;;4.53;76.62
49393;BME280;35268;42.642;23.308;2024-02-21T02:28:02;94459.66;;;4.58;76.63
49393;BME280;35268;42.642;23.308;2024-02-21T02:30:27;94459.66;;;4.58;76.54
49393;BME280;35268;42.642;23.308;2024-02-21T02:32:53;94457.31;;;4.56;76.51
49393;BME280;35268;42.642;23.308;2024-02-21T02:35:18;94459.16;;;4.61;76.21
49393;BME280;35268;42.642;23.308;2024-02-21T02:37:50;94456.56;;;4.66;76.17
49393;BME280;35268;42.642;23.308;2024-02-21T02:40:15;94449.38;;;4.61;76.05
49393;BME280;35268;42.642;23.308;2024-02-21T02:42:41;94452.56;;;4.58;76.26
49393;BME280;35268;42.642;23.308;2024-02-21T02:45:07;94457.31;;;4.61;76.00
49393;BME280;35268;42.642;23.308;2024-02-21T02:47:32;94447.81;;;4.66;76.00
49393;BME280;35268;42.642;23.308;2024-02-21T02:50:00;94452.84;;;4.67;76.11
49393;BME280;35268;42.642;23.308;2024-02-21T02:52:25;94449.41;;;4.67;75.61
49393;BME280;35268;42.642;23.308;2024-02-21T02:54:50;94457.59;;;4.60;75.55
49393;BME280;35268;42.642;23.308;2024-02-21T02:57:17;94454.41;;;4.63;75.75
49393;BME280;35268;42.642;23.308;2024-02-21T02:59:50;94457.84;;;4.58;75.88
49393;BME280;35268;42.642;23.308;2024-02-21T03:02:16;94454.94;;;4.55;76.05
49393;BME280;35268;42.642;23.308;2024-02-21T03:04:41;94458.13;;;4.67;75.94
49393;BME280;35268;42.642;23.308;2024-02-21T03:07:07;94458.94;;;4.78;75.74
49393;BME280;35268;42.642;23.308;2024-02-21T03:09:32;94459.47;;;4.80;75.91
49393;BME280;35268;42.642;23.308;2024-02-21T03:11:57;94464.22;;;4.73;76.09
49393;BME280;35268;42.642;23.308;2024-02-21T03:14:28;94463.16;;;4.69;75.93
49393;BME280;35268;42.642;23.308;2024-02-21T03:16:53;94461.25;;;4.54;76.04
49393;BME280;35268;42.642;23.308;2024-02-21T03:19:19;94467.09;;;4.61;76.19
49393;BME280;35268;42.642;23.308;2024-02-21T03:21:44;94471.31;;;4.62;75.66
49393;BME280;35268;42.642;23.308;2024-02-21T03:24:10;94473.69;;;4.63;75.60
49393;BME280;35268;42.642;23.308;2024-02-21T03:26:35;94473.19;;;4.72;75.32
49393;BME280;35268;42.642;23.308;2024-02-21T03:29:00;94479.53;;;4.71;75.48
49393;BME280;35268;42.642;23.308;2024-02-21T03:31:26;94478.75;;;4.75;75.42
49393;BME280;35268;42.642;23.308;2024-02-21T03:33:51;94471.34;;;4.72;74.86
49393;BME280;35268;42.642;23.308;2024-02-21T03:36:17;94472.66;;;4.70;74.88
49393;BME280;35268;42.642;23.308;2024-02-21T03:38:42;94474.78;;;4.78;74.70
49393;BME280;35268;42.642;23.308;2024-02-21T03:41:07;94475.06;;;4.81;74.19
49393;BME280;35268;42.642;23.308;2024-02-21T03:43:33;94483.78;;;4.87;74.36
49393;BME280;35268;42.642;23.308;2024-02-21T03:45:58;94474.78;;;4.88;74.63
49393;BME280;35268;42.642;23.308;2024-02-21T03:48:24;94482.47;;;4.90;73.99
49393;BME280;35268;42.642;23.308;2024-02-21T03:50:49;94493.81;;;4.90;73.89
49393;BME280;35268;42.642;23.308;2024-02-21T03:53:15;94498.88;;;4.97;74.00
49393;BME280;35268;42.642;23.308;2024-02-21T03:55:40;94491.19;;;4.85;74.04
49393;BME280;35268;42.642;23.308;2024-02-21T03:58:06;94486.19;;;4.89;73.82
49393;BME280;35268;42.642;23.308;2024-02-21T04:00:31;94485.09;;;4.85;73.93
49393;BME280;35268;42.642;23.308;2024-02-21T04:02:56;94490.63;;;4.88;73.95
49393;BME280;35268;42.642;23.308;2024-02-21T04:05:22;94488.81;;;4.94;73.44
49393;BME280;35268;42.642;23.308;2024-02-21T04:07:47;94486.16;;;4.94;73.94
49393;BME280;35268;42.642;23.308;2024-02-21T04:10:13;94487.50;;;4.91;73.98
49393;BME280;35268;42.642;23.308;2024-02-21T04:12:38;94484.03;;;4.86;74.72
49393;BME280;35268;42.642;23.308;2024-02-21T04:15:04;94481.91;;;4.77;74.38
49393;BME280;35268;42.642;23.308;2024-02-21T04:17:29;94474.28;;;4.81;74.42
49393;BME280;35268;42.642;23.308;2024-02-21T04:20:03;94482.72;;;4.83;74.25
49393;BME280;35268;42.642;23.308;2024-02-21T04:22:31;94472.16;;;4.83;74.98
49393;BME280;35268;42.642;23.308;2024-02-21T04:24:56;94476.66;;;4.93;74.52
49393;BME280;35268;42.642;23.308;2024-02-21T04:27:22;94482.47;;;4.90;75.12
49393;BME280;35268;42.642;23.308;2024-02-21T04:29:47;94471.63;;;4.96;75.11
49393;BME280;35268;42.642;23.308;2024-02-21T04:32:13;94481.13;;;4.92;75.55
49393;BME280;35268;42.642;23.308;2024-02-21T04:34:41;94483.78;;;4.92;75.17
49393;BME280;35268;42.642;23.308;2024-02-21T04:37:06;94476.66;;;4.93;75.17
49393;BME280;35268;42.642;23.308;2024-02-21T04:39:32;94476.13;;;4.86;74.53
49393;BME280;35268;42.642;23.308;2024-02-21T04:41:57;94481.69;;;4.89;74.50
49393;BME280;35268;42.642;23.308;2024-02-21T04:44:22;94481.94;;;4.88;74.94
49393;BME280;35268;42.642;23.308;2024-02-21T04:46:48;94482.47;;;4.90;75.15
49393;BME280;35268;42.642;23.308;2024-02-21T04:49:13;94492.25;;;4.89;75.13
49393;BME280;35268;42.642;23.308;2024-02-21T04:51:40;94487.75;;;4.90;74.87
49393;BME280;35268;42.642;23.308;2024-02-21T04:54:06;94489.59;;;4.79;74.96
49393;BME280;35268;42.642;23.308;2024-02-21T04:56:31;94481.59;;;4.63;75.37
49393;BME280;35268;42.642;23.308;2024-02-21T04:58:57;94480.78;;;4.53;76.09
49393;BME280;35268;42.642;23.308;2024-02-21T05:01:22;94485.00;;;4.49;76.23
49393;BME280;35268;42.642;23.308;2024-02-21T05:03:47;94486.03;;;4.48;76.07
49393;BME280;35268;42.642;23.308;2024-02-21T05:06:13;94488.94;;;4.41;76.31
49393;BME280;35268;42.642;23.308;2024-02-21T05:08:39;94487.59;;;4.38;76.72
49393;BME280;35268;42.642;23.308;2024-02-21T05:11:04;94493.94;;;4.37;76.77
49393;BME280;35268;42.642;23.308;2024-02-21T05:13:30;94487.28;;;4.25;77.15
49393;BME280;35268;42.642;23.308;2024-02-21T05:15:55;94489.91;;;4.19;77.64
49393;BME280;35268;42.642;23.308;2024-02-21T05:18:21;94493.84;;;4.12;77.13
49393;BME280;35268;42.642;23.308;2024-02-21T05:20:46;94501.94;;;4.00;76.01
49393;BME280;35268;42.642;23.308;2024-02-21T05:23:11;94502.72;;;3.95;75.44
49393;BME280;35268;42.642;23.308;2024-02-21T05:25:37;94498.47;;;3.94;74.81
49393;BME280;35268;42.642;23.308;2024-02-21T05:28:03;94498.72;;;3.93;74.28
49393;BME280;35268;42.642;23.308;2024-02-21T05:30:31;94504.53;;;3.90;74.99
49393;BME280;35268;42.642;23.308;2024-02-21T05:32:56;94499.53;;;3.93;75.16
49393;BME280;35268;42.642;23.308;2024-02-21T05:35:28;94511.91;;;3.93;75.46
49393;BME280;35268;42.642;23.308;2024-02-21T05:37:54;94497.19;;;3.97;75.73
49393;BME280;35268;42.642;23.308;2024-02-21T05:40:19;94497.44;;;4.00;75.50
49393;BME280;35268;42.642;23.308;2024-02-21T05:42:44;94503.81;;;4.05;75.35
49393;BME280;35268;42.642;23.308;2024-02-21T05:45:10;94497.78;;;4.14;75.31
49393;BME280;35268;42.642;23.308;2024-02-21T05:47:35;94496.22;;;4.18;74.99
49393;BME280;35268;42.642;23.308;2024-02-21T05:50:01;94501.00;;;4.27;74.99
49393;BME280;35268;42.642;23.308;2024-02-21T05:52:26;94514.78;;;4.34;74.98
49393;BME280;35268;42.642;23.308;2024-02-21T05:54:51;94511.13;;;4.40;74.85
49393;BME280;35268;42.642;23.308;2024-02-21T05:57:17;94515.31;;;4.41;74.32
49393;BME280;35268;42.642;23.308;2024-02-21T05:59:43;94508.47;;;4.45;74.36
49393;BME280;35268;42.642;23.308;2024-02-21T06:02:09;94515.91;;;4.53;73.87
49393;BME280;35268;42.642;23.308;2024-02-21T06:04:34;94514.31;;;4.52;73.40
49393;BME280;35268;42.642;23.308;2024-02-21T06:07:00;94514.38;;;4.62;72.91
49393;BME280;35268;42.642;23.308;2024-02-21T06:09:26;94524.09;;;4.57;73.34
49393;BME280;35268;42.642;23.308;2024-02-21T06:11:51;94521.75;;;4.60;73.53
49393;BME280;35268;42.642;23.308;2024-02-21T06:14:17;94533.66;;;4.73;73.25
49393;BME280;35268;42.642;23.308;2024-02-21T06:16:43;94534.72;;;4.77;73.08
49393;BME280;35268;42.642;23.308;2024-02-21T06:19:09;94524.69;;;4.79;73.47
49393;BME280;35268;42.642;23.308;2024-02-21T06:21:34;94528.69;;;4.87;73.14
49393;BME280;35268;42.642;23.308;2024-02-21T06:23:59;94531.63;;;4.91;72.93
49393;BME280;35268;42.642;23.308;2024-02-21T06:26:25;94535.84;;;4.97;72.85
49393;BME280;35268;42.642;23.308;2024-02-21T06:28:50;94535.09;;;5.12;73.08
49393;BME280;35268;42.642;23.308;2024-02-21T06:31:16;94536.69;;;5.18;72.59
49393;BME280;35268;42.642;23.308;2024-02-21T06:33:41;94544.84;;;5.16;72.29
49393;BME280;35268;42.642;23.308;2024-02-21T06:36:07;94546.72;;;5.21;71.84
49393;BME280;35268;42.642;23.308;2024-02-21T06:38:33;94544.88;;;5.27;71.90
49393;BME280;35268;42.642;23.308;2024-02-21T06:40:59;94545.94;;;5.20;71.98
49393;BME280;35268;42.642;23.308;2024-02-21T06:43:25;94548.81;;;5.19;72.63
49393;BME280;35268;42.642;23.308;2024-02-21T06:45:51;94555.47;;;5.21;72.21
49393;BME280;35268;42.642;23.308;2024-02-21T06:48:18;94559.41;;;5.24;72.51
49393;BME280;35268;42.642;23.308;2024-02-21T06:50:44;94559.16;;;5.31;72.39
49393;BME280;35268;42.642;23.308;2024-02-21T06:53:09;94574.25;;;5.35;71.84
49393;BME280;35268;42.642;23.308;2024-02-21T06:55:35;94572.66;;;5.45;71.64
49393;BME280;35268;42.642;23.308;2024-02-21T06:58:00;94563.41;;;5.52;71.66
49393;BME280;35268;42.642;23.308;2024-02-21T07:00:28;94564.19;;;5.53;71.28
49393;BME280;35268;42.642;23.308;2024-02-21T07:02:53;94566.59;;;5.54;71.48
49393;BME280;35268;42.642;23.308;2024-02-21T07:05:19;94561.03;;;5.56;71.15
49393;BME280;35268;42.642;23.308;2024-02-21T07:07:44;94563.69;;;5.46;71.79
49393;BME280;35268;42.642;23.308;2024-02-21T07:10:10;94577.97;;;5.55;72.00
49393;BME280;35268;42.642;23.308;2024-02-21T07:12:36;94565.28;;;5.52;72.12
49393;BME280;35268;42.642;23.308;2024-02-21T07:15:04;94563.69;;;5.66;71.38
49393;BME280;35268;42.642;23.308;2024-02-21T07:17:30;94567.38;;;5.65;71.48
49393;BME280;35268;42.642;23.308;2024-02-21T07:19:55;94565.00;;;5.69;71.08
49393;BME280;35268;42.642;23.308;2024-02-21T07:22:22;94568.44;;;5.69;71.06
49393;BME280;35268;42.642;23.308;2024-02-21T07:24:47;94570.56;;;5.77;71.01
49393;BME280;35268;42.642;23.308;2024-02-21T07:27:15;94573.19;;;5.77;70.91
49393;BME280;35268;42.642;23.308;2024-02-21T07:29:40;94569.50;;;5.78;71.21
49393;BME280;35268;42.642;23.308;2024-02-21T07:32:06;94568.44;;;5.85;70.72
49393;BME280;35268;42.642;23.308;2024-02-21T07:34:31;94573.22;;;5.72;70.82
49393;BME280;35268;42.642;23.308;2024-02-21T07:36:57;94571.88;;;5.75;71.06
49393;BME280;35268;42.642;23.308;2024-02-21T07:39:22;94581.66;;;5.69;71.34
49393;BME280;35268;42.642;23.308;2024-02-21T07:41:48;94578.50;;;5.72;71.50
49393;BME280;35268;42.642;23.308;2024-02-21T07:44:15;94572.66;;;5.75;71.26
49393;BME280;35268;42.642;23.308;2024-02-21T07:46:40;94568.47;;;5.74;71.36
49393;BME280;35268;42.642;23.308;2024-02-21T07:49:06;94570.56;;;5.88;71.22
49393;BME280;35268;42.642;23.308;2024-02-21T07:51:31;94573.72;;;5.90;71.11
49393;BME280;35268;42.642;23.308;2024-02-21T07:53:56;94563.66;;;5.92;71.10
49393;BME280;35268;42.642;23.308;2024-02-21T07:56:22;94570.31;;;5.94;71.12
49393;BME280;35268;42.642;23.308;2024-02-21T07:58:47;94569.78;;;6.02;70.82
49393;BME280;35268;42.642;23.308;2024-02-21T08:01:18;94566.34;;;6.07;70.01
49393;BME280;35268;42.642;23.308;2024-02-21T08:03:45;94575.56;;;6.20;70.08
49393;BME280;35268;42.642;23.308;2024-02-21T08:06:12;94572.66;;;6.21;69.84
49393;BME280;35268;42.642;23.308;2024-02-21T08:08:38;94566.31;;;6.22;69.51
49393;BME280;35268;42.642;23.308;2024-02-21T08:11:04;94561.53;;;6.30;69.30
49393;BME280;35268;42.642;23.308;2024-02-21T08:13:29;94574.19;;;6.48;68.80
49393;BME280;35268;42.642;23.308;2024-02-21T08:15:55;94568.59;;;6.60;68.33
49393;BME280;35268;42.642;23.308;2024-02-21T08:18:20;94567.25;;;6.68;67.86
49393;BME280;35268;42.642;23.308;2024-02-21T08:20:45;94579.47;;;6.58;67.90
49393;BME280;35268;42.642;23.308;2024-02-21T08:23:11;94563.31;;;6.55;67.72
49393;BME280;35268;42.642;23.308;2024-02-21T08:25:36;94566.22;;;6.63;67.54
49393;BME280;35268;42.642;23.308;2024-02-21T08:28:02;94557.75;;;6.61;67.75
49393;BME280;35268;42.642;23.308;2024-02-21T08:30:27;94560.88;;;6.74;67.22
49393;BME280;35268;42.642;23.308;2024-02-21T08:32:53;94559.22;;;6.83;66.50
49393;BME280;35268;42.642;23.308;2024-02-21T08:35:21;94556.06;;;6.81;65.98
49393;BME280;35268;42.642;23.308;2024-02-21T08:37:50;94556.28;;;6.90;64.07
49393;BME280;35268;42.642;23.308;2024-02-21T08:40:16;94557.06;;;6.95;62.64
49393;BME280;35268;42.642;23.308;2024-02-21T08:42:46;94565.75;;;7.06;61.73
49393;BME280;35268;42.642;23.308;2024-02-21T08:45:12;94551.69;;;7.11;61.87
49393;BME280;35268;42.642;23.308;2024-02-21T08:47:41;94555.34;;;7.20;61.47
49393;BME280;35268;42.642;23.308;2024-02-21T08:50:07;94547.38;;;7.20;60.90
49393;BME280;35268;42.642;23.308;2024-02-21T08:52:34;94563.84;;;7.17;61.48
49393;BME280;35268;42.642;23.308;2024-02-21T08:55:00;94562.00;;;7.12;61.84
49393;BME280;35268;42.642;23.308;2024-02-21T08:57:27;94570.75;;;7.13;61.50
49393;BME280;35268;42.642;23.308;2024-02-21T08:59:52;94569.38;;;7.20;62.35
49393;BME280;35268;42.642;23.308;2024-02-21T09:02:17;94569.84;;;7.33;62.09
49393;BME280;35268;42.642;23.308;2024-02-21T09:04:43;94572.19;;;7.39;61.42
49393;BME280;35268;42.642;23.308;2024-02-21T09:07:11;94568.50;;;7.35;61.36
49393;BME280;35268;42.642;23.308;2024-02-21T09:09:37;94565.28;;;7.38;61.86
49393;BME280;35268;42.642;23.308;2024-02-21T09:12:06;94559.78;;;7.35;62.11
49393;BME280;35268;42.642;23.308;2024-02-21T09:14:33;94562.34;;;7.45;62.85
49393;BME280;35268;42.642;23.308;2024-02-21T09:16:58;94574.25;;;7.48;62.73
49393;BME280;35268;42.642;23.308;2024-02-21T09:19:24;94559.31;;;7.62;62.39
49393;BME280;35268;42.642;23.308;2024-02-21T09:21:49;94561.38;;;7.70;62.31
49393;BME280;35268;42.642;23.308;2024-02-21T09:24:15;94557.41;;;7.68;61.89
49393;BME280;35268;42.642;23.308;2024-02-21T09:26:40;94565.06;;;7.69;61.06
49393;BME280;35268;42.642;23.308;2024-02-21T09:29:05;94559.56;;;7.60;61.29
49393;BME280;35268;42.642;23.308;2024-02-21T09:31:31;94567.81;;;7.59;61.72
49393;BME280;35268;42.642;23.308;2024-02-21T09:33:56;94560.38;;;7.61;61.63
49393;BME280;35268;42.642;23.308;2024-02-21T09:36:22;94574.97;;;7.58;61.78
49393;BME280;35268;42.642;23.308;2024-02-21T09:38:47;94555.34;;;7.59;61.71
49393;BME280;35268;42.642;23.308;2024-02-21T09:41:17;94558.53;;;7.56;61.47
49393;BME280;35268;42.642;23.308;2024-02-21T09:43:44;94565.75;;;7.51;61.74
49393;BME280;35268;42.642;23.308;2024-02-21T09:46:18;94555.09;;;7.56;61.88
49393;BME280;35268;42.642;23.308;2024-02-21T09:51:20;94569.44;;;7.55;60.58
49393;BME280;35268;42.642;23.308;2024-02-21T09:53:46;94570.97;;;7.61;61.08
49393;BME280;35268;42.642;23.308;2024-02-21T09:56:12;94560.09;;;7.62;62.76
49393;BME280;35268;42.642;23.308;2024-02-21T09:58:39;94567.22;;;7.67;63.26
49393;BME280;35268;42.642;23.308;2024-02-21T10:01:04;94556.59;;;7.67;64.16
49393;BME280;35268;42.642;23.308;2024-02-21T10:03:32;94559.22;;;7.72;63.23
49393;BME280;35268;42.642;23.308;2024-02-21T10:05:58;94553.84;;;7.82;62.15
49393;BME280;35268;42.642;23.308;2024-02-21T10:08:26;94552.75;;;7.83;61.43
49393;BME280;35268;42.642;23.308;2024-02-21T10:10:51;94560.72;;;7.83;60.96
49393;BME280;35268;42.642;23.308;2024-02-21T10:13:28;94550.09;;;7.83;60.28
49393;BME280;35268;42.642;23.308;2024-02-21T10:16:07;94549.59;;;7.81;59.87
49393;BME280;35268;42.642;23.308;2024-02-21T10:18:36;94549.53;;;7.92;58.70
49393;BME280;35268;42.642;23.308;2024-02-21T10:21:06;94541.78;;;7.95;59.20
49393;BME280;35268;42.642;23.308;2024-02-21T10:23:48;94545.44;;;8.04;58.48
49393;BME280;35268;42.642;23.308;2024-02-21T10:26:14;94538.31;;;8.00;56.12
49393;BME280;35268;42.642;23.308;2024-02-21T10:28:40;94533.00;;;8.00;56.94
49393;BME280;35268;42.642;23.308;2024-02-21T10:31:08;94528.13;;;8.07;56.54
49393;BME280;35268;42.642;23.308;2024-02-21T10:33:34;94522.28;;;8.10;56.75
49393;BME280;35268;42.642;23.308;2024-02-21T10:36:10;94528.09;;;8.12;56.85
49393;BME280;35268;42.642;23.308;2024-02-21T10:38:37;94521.09;;;8.21;56.08
49393;BME280;35268;42.642;23.308;2024-02-21T10:41:04;94509.41;;;8.22;56.20
49393;BME280;35268;42.642;23.308;2024-02-21T10:43:32;94501.47;;;8.17;55.64
49393;BME280;35268;42.642;23.308;2024-02-21T10:46:00;94493.91;;;8.30;56.00
49393;BME280;35268;42.642;23.308;2024-02-21T10:48:38;94486.44;;;8.32;53.62
49393;BME280;35268;42.642;23.308;2024-02-21T10:51:17;94485.44;;;8.28;54.51
49393;BME280;35268;42.642;23.308;2024-02-21T10:53:45;94480.00;;;8.43;54.86
49393;BME280;35268;42.642;23.308;2024-02-21T10:58:48;94482.44;;;8.58;52.40
49393;BME280;35268;42.642;23.308;2024-02-21T11:01:15;94469.34;;;8.67;52.89
49393;BME280;35268;42.642;23.308;2024-02-21T11:03:45;94464.59;;;8.83;51.98
49393;BME280;35268;42.642;23.308;2024-02-21T11:06:15;94461.28;;;8.91;50.96
49393;BME280;35268;42.642;23.308;2024-02-21T11:08:42;94463.00;;;9.01;50.61
49393;BME280;35268;42.642;23.308;2024-02-21T11:11:08;94456.91;;;9.19;49.93
49393;BME280;35268;42.642;23.308;2024-02-21T11:13:37;94459.06;;;9.36;50.02
49393;BME280;35268;42.642;23.308;2024-02-21T11:16:09;94453.13;;;9.39;49.96
49393;BME280;35268;42.642;23.308;2024-02-21T11:18:38;94464.72;;;9.49;49.22
49393;BME280;35268;42.642;23.308;2024-02-21T11:21:04;94449.13;;;9.56;48.76
49393;BME280;35268;42.642;23.308;2024-02-21T11:23:31;94460.00;;;9.59;48.45
49393;BME280;35268;42.642;23.308;2024-02-21T11:26:09;94461.72;;;9.50;46.61
49393;BME280;35268;42.642;23.308;2024-02-21T11:28:36;94455.41;;;9.46;46.89
49393;BME280;35268;42.642;23.308;2024-02-21T11:31:08;94448.94;;;9.52;47.71
49393;BME280;35268;42.642;23.308;2024-02-21T11:33:34;94454.25;;;9.52;48.21
49393;BME280;35268;42.642;23.308;2024-02-21T11:36:04;94448.81;;;9.43;48.46
49393;BME280;35268;42.642;23.308;2024-02-21T11:38:29;94452.75;;;9.46;48.57
49393;BME280;35268;42.642;23.308;2024-02-21T11:40:58;94442.94;;;9.47;47.45
49393;BME280;35268;42.642;23.308;2024-02-21T11:43:23;94448.06;;;9.24;47.47
49393;BME280;35268;42.642;23.308;2024-02-21T11:45:49;94445.13;;;9.07;47.87
49393;BME280;35268;42.642;23.308;2024-02-21T11:48:17;94430.97;;;8.92;49.07
49393;BME280;35268;42.642;23.308;2024-02-21T11:50:52;94428.88;;;8.89;50.23
49393;BME280;35268;42.642;23.308;2024-02-21T11:53:18;94433.91;;;8.91;49.80
49393;BME280;35268;42.642;23.308;2024-02-21T11:55:45;94428.47;;;8.82;49.80
49393;BME280;35268;42.642;23.308;2024-02-21T11:58:11;94423.00;;;8.73;50.78
49393;BME280;35268;42.642;23.308;2024-02-21T12:00:36;94426.31;;;8.65;50.85
49393;BME280;35268;42.642;23.308;2024-02-21T12:03:03;94428.97;;;8.65;50.99
49393;BME280;35268;42.642;23.308;2024-02-21T12:05:29;94431.19;;;8.58;51.06
49393;BME280;35268;42.642;23.308;2024-02-21T12:07:58;94430.25;;;8.68;50.68
49393;BME280;35268;42.642;23.308;2024-02-21T12:10:25;94423.06;;;8.68;49.81
49393;BME280;35268;42.642;23.308;2024-02-21T12:13:09;94428.16;;;8.64;50.07
49393;BME280;35268;42.642;23.308;2024-02-21T12:15:35;94418.25;;;8.51;50.33
49393;BME280;35268;42.642;23.308;2024-02-21T12:18:01;94420.09;;;8.51;50.76
49393;BME280;35268;42.642;23.308;2024-02-21T12:20:26;94412.94;;;8.51;50.43
49393;BME280;35268;42.642;23.308;2024-02-21T12:22:53;94422.06;;;8.45;51.10
49393;BME280;35268;42.642;23.308;2024-02-21T12:25:21;94419.41;;;8.40;52.17
49393;BME280;35268;42.642;23.308;2024-02-21T12:27:51;94413.31;;;8.39;52.70
49393;BME280;35268;42.642;23.308;2024-02-21T12:30:17;94417.84;;;8.39;53.40
49393;BME280;35268;42.642;23.308;2024-02-21T12:32:43;94422.78;;;8.27;53.19
49393;BME280;35268;42.642;23.308;2024-02-21T12:35:08;94411.69;;;8.19;52.89
49393;BME280;35268;42.642;23.308;2024-02-21T12:37:34;94411.28;;;8.12;52.28
49393;BME280;35268;42.642;23.308;2024-02-21T12:39:59;94412.78;;;8.18;52.79
49393;BME280;35268;42.642;23.308;2024-02-21T12:42:25;94398.94;;;8.21;53.43
49393;BME280;35268;42.642;23.308;2024-02-21T12:44:52;94409.50;;;8.27;53.27
49393;BME280;35268;42.642;23.308;2024-02-21T12:47:18;94396.84;;;8.18;53.58
49393;BME280;35268;42.642;23.308;2024-02-21T12:49:45;94397.78;;;8.28;53.51
49393;BME280;35268;42.642;23.308;2024-02-21T12:52:10;94401.41;;;8.37;53.34
49393;BME280;35268;42.642;23.308;2024-02-21T12:54:36;94401.34;;;8.42;53.17
49393;BME280;35268;42.642;23.308;2024-02-21T12:57:01;94395.59;;;8.35;53.01
49393;BME280;35268;42.642;23.308;2024-02-21T12:59:28;94386.75;;;8.20;53.61
49393;BME280;35268;42.642;23.308;2024-02-21T13:01:54;94397.00;;;8.27;53.74